Time;durP1;ratioP1;P1;durP2;ratioP2;P2;SDS_P1;SDS_P2;PMS_P1;PMS_P2;Temp;Humidity;BMP_temperature;BMP_pressure;BME280_temperature;BME280_humidity;BME280_pressure;Samples;Min_cycle;Max_cycle;Signal;HPM_P1;HPM_P2
2023/07/26 00:05:24;;;;;;;0.50;0.50;;;13.60;99.90;;;;;;4712015;30;20117;-93
2023/07/26 00:08:08;;;;;;;;;;;;;;;;;;;;;
2023/07/26 00:18:11;;;;;;;0.50;0.50;;;13.70;99.90;;;;;;4727530;30;20701;-95
2023/07/26 00:20:41;;;;;;;0.50;0.50;;;13.70;99.90;;;;;;4708278;30;20135;-94
2023/07/26 00:23:07;;;;;;;0.50;0.50;;;13.70;99.90;;;;;;4696060;30;20253;-93
2023/07/26 00:26:21;;;;;;;;;;;;;;;;;;;;;
2023/07/26 00:29:05;;;;;;;0.50;0.50;;;13.60;99.90;;;;;;4730716;30;20056;-95
2023/07/26 00:34:20;;;;;;;0.50;0.50;;;13.70;99.90;;;;;;4764379;30;20079;-92
2023/07/26 00:40:26;;;;;;;0.50;0.50;;;13.70;99.90;;;;;;4762609;30;20048;-94
2023/07/26 00:43:22;;;;;;;;;;;;;;;;;;;;;
2023/07/26 00:46:54;;;;;;;0.60;0.60;;;13.70;99.90;;;;;;4757932;30;20055;-93
2023/07/26 01:20:03;;;;;;;0.50;0.50;;;13.80;99.90;;;;;;4991353;24;20063;-95
2023/07/26 02:01:36;;;;;;;0.55;0.55;;;13.80;99.90;;;;;;4658587;30;20418;-94
2023/07/26 02:04:57;;;;;;;0.52;0.52;;;13.60;99.90;;;;;;4643314;30;20059;-96
2023/07/26 02:47:02;;;;;;;0.60;0.60;;;12.90;99.90;;;;;;4848120;24;20871;-94
2023/07/26 02:50:19;;;;;;;0.60;0.60;;;12.90;99.90;;;;;;4738313;30;20096;-93
2023/07/26 02:53:44;;;;;;;0.60;0.60;;;12.90;99.90;;;;;;4730709;30;20066;-94
2023/07/26 03:04:12;;;;;;;0.60;0.60;;;12.90;99.90;;;;;;4718034;30;20509;-94
2023/07/26 03:06:49;;;;;;;0.60;0.60;;;12.80;99.90;;;;;;4716718;30;20064;-92
2023/07/26 03:10:08;;;;;;;0.60;0.60;;;12.80;99.90;;;;;;4751799;30;20561;-96
2023/07/26 03:12:58;;;;;;;0.70;0.70;;;12.70;99.90;;;;;;4749611;30;20063;-96
2023/07/26 03:27:53;;;;;;;0.90;0.90;;;12.40;99.90;;;;;;4704727;30;20065;-94
2023/07/26 03:34:34;;;;;;;1.00;1.00;;;12.40;99.90;;;;;;4674247;30;20103;-93
2023/07/26 03:37:36;;;;;;;0.90;0.90;;;12.40;99.90;;;;;;4688128;30;20049;-94
2023/07/26 03:44:11;;;;;;;1.00;1.00;;;12.30;99.90;;;;;;4728263;30;20068;-94
2023/07/26 03:54:52;;;;;;;1.00;1.00;;;12.20;99.90;;;;;;4725686;30;20066;-93
2023/07/26 03:57:36;;;;;;;1.02;1.02;;;12.20;99.90;;;;;;4758686;30;20063;-93
2023/07/26 04:00:36;;;;;;;1.13;1.13;;;12.10;99.90;;;;;;4756260;30;20052;-96
2023/07/26 04:03:38;;;;;;;1.10;1.10;;;12.00;99.90;;;;;;4751949;30;20052;-94
2023/07/26 04:10:30;;;;;;;1.00;1.00;;;12.10;99.90;;;;;;4695226;30;20573;-93
2023/07/26 04:13:35;;;;;;;;;;;11.90;99.90;;;;;;4722144;30;20067;-93
2023/07/26 04:16:14;;;;;;;1.00;1.00;;;12.00;99.90;;;;;;4702019;30;20423;-93
2023/07/26 04:23:04;;;;;;;;;;;;;;;;;;;;;
2023/07/26 04:27:22;;;;;;;;;;;;;;;;;;;;;
2023/07/26 04:29:43;;;;;;;1.00;1.00;;;12.10;99.90;;;;;;4657039;30;20117;-93
2023/07/26 04:32:23;;;;;;;1.00;1.00;;;12.10;99.90;;;;;;4667713;30;20101;-92
2023/07/26 04:38:07;;;;;;;1.00;1.00;;;12.20;99.90;;;;;;4717680;30;20232;-90
2023/07/26 04:40:47;;;;;;;;;;;;;;;;;;;;;
2023/07/26 04:47:51;;;;;;;1.00;1.00;;;12.40;99.90;;;;;;4619082;30;20097;-94
2023/07/26 04:50:22;;;;;;;1.00;1.00;;;12.50;99.90;;;;;;4643228;30;20152;-90
2023/07/26 04:56:45;;;;;;;;;;;;;;;;;;;;;
2023/07/26 05:07:06;;;;;;;;;;;;;;;;;;;;;
2023/07/26 05:10:44;;;;;;;1.05;1.05;;;12.80;99.90;;;;;;4733530;30;20186;-95
2023/07/26 05:13:13;;;;;;;0.93;0.93;;;12.90;99.90;;;;;;4666296;30;20521;-91
2023/07/26 05:15:59;;;;;;;0.90;0.90;;;13.30;99.90;;;;;;4650640;30;20042;-92
2023/07/26 05:18:40;;;;;;;1.00;1.00;;;13.90;99.90;;;;;;4678260;30;20141;-92
2023/07/26 05:33:14;;;;;;;1.02;1.02;;;13.20;99.90;;;;;;4739759;30;20222;-93
2023/07/26 05:35:26;;;;;;;0.90;0.90;;;13.40;99.90;;;;;;4756803;30;20667;-92
2023/07/26 05:38:29;;;;;;;0.90;0.90;;;14.80;99.90;;;;;;4750269;30;20044;-89
2023/07/26 05:41:03;;;;;;;0.90;0.90;;;15.80;99.90;;;;;;4751865;30;20059;-92
2023/07/26 05:47:00;;;;;;;1.00;1.00;;;15.40;99.90;;;;;;4721896;30;20139;-92
2023/07/26 05:49:34;;;;;;;1.00;1.00;;;16.10;99.90;;;;;;4750868;30;20633;-92
2023/07/26 05:52:01;;;;;;;1.00;1.00;;;16.20;99.90;;;;;;4738700;30;20064;-93
2023/07/26 05:54:27;;;;;;;1.10;1.10;;;15.90;99.90;;;;;;4754583;30;20122;-89
2023/07/26 05:56:52;;;;;;;0.88;0.88;;;15.70;99.90;;;;;;4750277;30;20670;-91
2023/07/26 06:00:11;;;;;;;0.95;0.95;;;15.90;99.90;;;;;;4741392;30;20083;-92
2023/07/26 06:03:09;;;;;;;0.90;0.90;;;16.30;99.90;;;;;;4720514;30;20094;-94
2023/07/26 06:05:36;;;;;;;0.90;0.90;;;16.60;99.90;;;;;;4746619;30;20083;-93
2023/07/26 06:11:42;;;;;;;1.13;1.13;;;17.00;99.90;;;;;;4759462;30;20052;-95
2023/07/26 06:27:58;;;;;;;1.98;1.88;;;16.40;99.90;;;;;;4993708;24;20525;-93
2023/07/26 06:30:31;;;;;;;1.90;1.80;;;16.20;99.90;;;;;;4760522;30;20055;-93
2023/07/26 06:33:37;;;;;;;2.22;2.13;;;16.10;99.90;;;;;;4787203;29;20055;-93
2023/07/26 06:37:01;;;;;;;1.83;1.73;;;16.00;99.90;;;;;;4743444;30;20572;-94
2023/07/26 06:39:27;;;;;;;1.83;1.73;;;15.80;99.90;;;;;;4758285;29;20063;-91
2023/07/26 06:57:12;;;;;;;1.60;1.50;;;16.20;99.90;;;;;;4725973;30;20068;-93
2023/07/26 07:19:09;;;;;;;1.60;1.50;;;15.90;99.90;;;;;;4740378;30;20066;-95
2023/07/26 07:22:07;;;;;;;1.13;1.13;;;16.00;99.90;;;;;;4767043;30;20506;-92
2023/07/26 07:27:56;;;;;;;;;;;16.00;99.90;;;;;;4746057;30;20135;-94
2023/07/26 07:30:46;;;;;;;1.20;1.20;;;15.90;99.90;;;;;;4749897;30;19926;-94
2023/07/26 07:33:52;;;;;;;1.05;1.05;;;16.00;99.90;;;;;;4785546;30;20064;-92
2023/07/26 07:36:21;;;;;;;1.20;1.20;;;16.00;99.90;;;;;;4784886;30;20051;-95
2023/07/26 07:38:47;;;;;;;1.30;1.30;;;15.90;99.90;;;;;;4769975;30;20542;-91
2023/07/26 07:42:25;;;;;;;;;;;;;;;;;;;;;
2023/07/26 07:45:05;;;;;;;1.20;1.20;;;15.80;99.90;;;;;;4734640;30;20120;-94
2023/07/26 07:47:35;;;;;;;1.10;1.10;;;15.70;99.90;;;;;;4742560;30;20063;-93
2023/07/26 07:50:01;;;;;;;1.15;1.15;;;15.70;99.90;;;;;;4779798;30;20055;-90
2023/07/26 07:52:32;;;;;;;1.23;1.23;;;15.70;99.90;;;;;;4769539;30;20477;-92
2023/07/26 07:55:23;;;;;;;1.17;1.17;;;15.60;99.90;;;;;;4767629;30;20082;-91
2023/07/26 07:58:20;;;;;;;1.15;1.15;;;15.60;99.90;;;;;;4766611;30;20055;-92
2023/07/26 08:00:58;;;;;;;1.23;1.23;;;15.50;99.90;;;;;;4753825;30;20063;-89
2023/07/26 08:03:49;;;;;;;0.80;0.80;;;15.50;99.90;;;;;;4761486;30;20070;-88
2023/07/26 08:06:21;;;;;;;0.70;0.70;;;15.40;99.90;;;;;;4772299;29;20051;-95
2023/07/26 08:09:37;;;;;;;0.80;0.80;;;15.40;99.90;;;;;;4767451;30;20425;-96
2023/07/26 08:12:17;;;;;;;0.80;0.80;;;15.30;99.90;;;;;;4771730;30;20062;-93
2023/07/26 08:14:49;;;;;;;0.70;0.70;;;15.10;99.90;;;;;;4768741;30;20057;-86
2023/07/26 08:17:15;;;;;;;0.70;0.70;;;15.10;99.90;;;;;;4781749;29;20067;-86
2023/07/26 08:19:40;;;;;;;0.70;0.70;;;15.10;99.90;;;;;;4782421;30;20197;-90
2023/07/26 08:22:06;;;;;;;0.70;0.70;;;15.10;99.90;;;;;;4781348;30;20039;-90
2023/07/26 08:24:32;;;;;;;0.70;0.70;;;15.10;99.90;;;;;;4767115;30;20277;-87
2023/07/26 08:26:58;;;;;;;0.70;0.70;;;15.10;99.90;;;;;;4781841;30;20047;-89
2023/07/26 08:29:26;;;;;;;0.65;0.65;;;15.10;99.90;;;;;;4768183;30;20055;-90
2023/07/26 08:31:52;;;;;;;0.70;0.70;;;15.40;99.90;;;;;;4766175;30;20051;-89
2023/07/26 08:34:21;;;;;;;0.70;0.70;;;15.60;99.90;;;;;;4781598;30;20536;-92
2023/07/26 08:36:58;;;;;;;0.73;0.73;;;15.70;99.90;;;;;;4770409;30;20059;-91
2023/07/26 08:39:23;;;;;;;0.80;0.80;;;15.90;99.90;;;;;;4782896;29;20139;-92
2023/07/26 08:41:52;;;;;;;0.80;0.80;;;16.00;99.90;;;;;;4767622;30;20204;-89
2023/07/26 08:44:29;;;;;;;0.80;0.80;;;15.90;99.90;;;;;;4781287;30;20204;-89
2023/07/26 08:46:56;;;;;;;0.70;0.70;;;15.90;99.90;;;;;;4766221;30;20058;-89
2023/07/26 08:49:22;;;;;;;0.70;0.70;;;16.30;99.90;;;;;;4767150;30;20051;-88
2023/07/26 08:51:48;;;;;;;0.73;0.73;;;16.40;99.90;;;;;;4761342;30;20057;-90
2023/07/26 08:54:14;;;;;;;0.65;0.65;;;16.70;99.90;;;;;;4765584;30;20050;-88
2023/07/26 08:56:41;;;;;;;0.75;0.75;;;17.00;99.90;;;;;;4774542;30;20051;-88
2023/07/26 08:59:10;;;;;;;0.70;0.70;;;17.70;99.90;;;;;;4777750;30;20055;-93
2023/07/26 09:01:42;;;;;;;0.63;0.63;;;17.70;99.90;;;;;;4781012;30;20055;-95
2023/07/26 09:04:08;;;;;;;0.60;0.60;;;17.70;99.90;;;;;;4766940;30;20051;-89
2023/07/26 09:06:40;;;;;;;0.80;0.80;;;17.60;99.90;;;;;;4764536;30;20044;-89
2023/07/26 09:09:06;;;;;;;0.80;0.80;;;17.40;99.90;;;;;;4780816;30;20047;-91
2023/07/26 09:11:33;;;;;;;0.80;0.80;;;17.20;99.90;;;;;;4779593;30;20051;-87
2023/07/26 09:14:03;;;;;;;0.75;0.75;;;17.00;99.90;;;;;;4780620;30;20139;-91
2023/07/26 09:16:31;;;;;;;0.70;0.70;;;17.70;99.90;;;;;;4765921;30;20047;-91
2023/07/26 09:19:07;;;;;;;0.70;0.70;;;18.30;99.90;;;;;;4779190;30;20070;-95
2023/07/26 09:21:36;;;;;;;0.70;0.70;;;18.60;99.90;;;;;;4764782;30;20043;-86
2023/07/26 09:24:03;;;;;;;0.88;0.88;;;18.80;99.90;;;;;;4780394;29;20078;-92
2023/07/26 09:26:39;;;;;;;0.90;0.90;;;18.90;99.90;;;;;;4765169;30;20104;-86
2023/07/26 09:29:11;;;;;;;0.93;0.93;;;18.90;99.90;;;;;;4775565;30;20124;-93
2023/07/26 09:31:38;;;;;;;0.82;0.82;;;19.20;99.90;;;;;;4764858;30;20051;-87
2023/07/26 09:34:12;;;;;;;0.95;0.95;;;19.30;99.90;;;;;;4779317;30;20155;-88
2023/07/26 09:36:50;;;;;;;0.88;0.88;;;19.40;99.90;;;;;;4779240;30;20055;-91
2023/07/26 09:39:17;;;;;;;0.98;0.98;;;19.20;99.90;;;;;;4757594;30;20645;-87
2023/07/26 09:41:46;;;;;;;1.00;1.00;;;18.90;99.90;;;;;;4776535;30;20134;-89
2023/07/26 09:44:19;;;;;;;0.98;0.98;;;19.20;99.90;;;;;;4764747;29;20071;-89
2023/07/26 09:46:50;;;;;;;1.00;1.00;;;19.60;99.90;;;;;;4776186;30;20055;-87
2023/07/26 09:49:17;;;;;;;1.10;1.10;;;19.70;99.90;;;;;;4767906;30;20047;-88
2023/07/26 09:51:43;;;;;;;1.00;1.00;;;19.70;99.90;;;;;;4782908;29;20176;-90
2023/07/26 09:54:10;;;;;;;1.08;1.08;;;20.10;99.90;;;;;;4777188;30;20488;-89
2023/07/26 09:56:42;;;;;;;1.02;1.02;;;20.20;99.90;;;;;;4763704;30;20130;-91
2023/07/26 09:59:09;;;;;;;0.90;0.90;;;20.20;99.90;;;;;;4763988;30;20235;-88
2023/07/26 10:01:44;;;;;;;0.82;0.82;;;20.30;99.90;;;;;;4764155;30;20134;-92
2023/07/26 10:04:34;;;;;;;0.80;0.80;;;20.40;99.90;;;;;;4779192;30;20073;-87
2023/07/26 10:07:10;;;;;;;0.88;0.88;;;20.60;99.90;;;;;;4786439;29;20694;-91
2023/07/26 10:09:43;;;;;;;0.70;0.70;;;20.70;99.90;;;;;;4763864;30;20059;-86
2023/07/26 10:12:10;;;;;;;0.70;0.70;;;20.70;99.90;;;;;;4778442;30;20066;-85
2023/07/26 10:14:36;;;;;;;0.80;0.80;;;20.90;99.90;;;;;;4776243;30;20059;-89
2023/07/26 10:17:04;;;;;;;0.70;0.70;;;20.10;99.90;;;;;;4776835;30;20047;-87
2023/07/26 10:19:31;;;;;;;0.73;0.73;;;20.40;99.90;;;;;;4777012;30;20047;-89
2023/07/26 10:21:57;;;;;;;0.70;0.70;;;20.20;99.90;;;;;;4757965;30;20062;-86
2023/07/26 10:24:25;;;;;;;1.08;1.08;;;20.10;99.90;;;;;;4777335;30;20043;-90
2023/07/26 10:26:53;;;;;;;0.73;0.73;;;20.00;99.90;;;;;;4778833;30;20137;-89
2023/07/26 10:29:19;;;;;;;0.70;0.70;;;19.80;99.90;;;;;;4761491;30;20082;-88
2023/07/26 10:31:46;;;;;;;0.70;0.70;;;20.60;99.90;;;;;;4775097;30;20047;-85
2023/07/26 10:34:20;;;;;;;0.70;0.70;;;19.80;99.90;;;;;;4776096;29;20558;-88
2023/07/26 10:36:46;;;;;;;0.60;0.60;;;20.00;99.90;;;;;;4760198;30;20055;-85
2023/07/26 10:39:12;;;;;;;0.60;0.60;;;20.80;99.90;;;;;;4774776;30;20051;-90
2023/07/26 10:41:50;;;;;;;0.60;0.60;;;21.10;99.90;;;;;;4775402;30;20419;-85
2023/07/26 10:44:16;;;;;;;0.60;0.60;;;21.50;99.90;;;;;;4775250;30;20577;-89
2023/07/26 10:47:03;;;;;;;0.73;0.70;;;21.20;99.90;;;;;;4774011;29;20056;-88
2023/07/26 10:49:30;;;;;;;0.52;0.52;;;21.60;99.90;;;;;;4763601;29;20452;-85
2023/07/26 10:52:06;;;;;;;0.52;0.52;;;22.00;99.90;;;;;;4779141;30;20093;-88
2023/07/26 10:54:36;;;;;;;0.50;0.50;;;22.10;99.90;;;;;;4776398;30;20062;-89
2023/07/26 10:57:27;;;;;;;0.40;0.40;;;22.30;99.90;;;;;;4779031;29;20047;-88
2023/07/26 11:00:22;;;;;;;0.50;0.50;;;22.40;99.90;;;;;;4764460;30;20059;-89
2023/07/26 11:03:07;;;;;;;0.50;0.50;;;22.20;99.90;;;;;;4776244;30;20100;-90
2023/07/26 11:05:38;;;;;;;0.40;0.40;;;22.10;99.90;;;;;;4763347;30;20039;-89
2023/07/26 11:08:08;;;;;;;0.50;0.50;;;22.40;99.90;;;;;;4764783;29;20055;-92
2023/07/26 11:10:38;;;;;;;0.50;0.50;;;21.50;99.90;;;;;;4764163;30;20055;-93
2023/07/26 11:13:18;;;;;;;0.50;0.50;;;21.30;99.90;;;;;;4777405;29;20055;-93
2023/07/26 11:15:49;;;;;;;0.50;0.50;;;21.70;99.90;;;;;;4764747;30;20051;-88
2023/07/26 11:18:17;;;;;;;0.50;0.50;;;21.20;99.90;;;;;;4765249;30;20146;-88
2023/07/26 11:20:54;;;;;;;0.50;0.50;;;21.50;99.90;;;;;;4762436;29;20200;-89
2023/07/26 11:23:27;;;;;;;0.50;0.50;;;22.00;99.90;;;;;;4793370;29;20050;-88
2023/07/26 11:26:01;;;;;;;0.50;0.50;;;22.30;99.90;;;;;;4763616;30;20047;-89
2023/07/26 11:28:31;;;;;;;0.60;0.60;;;22.70;99.90;;;;;;4779728;29;20051;-89
2023/07/26 11:31:17;;;;;;;0.60;0.60;;;21.90;99.90;;;;;;4776945;29;20537;-94
2023/07/26 11:33:43;;;;;;;0.60;0.60;;;22.30;99.90;;;;;;4766481;30;20055;-88
2023/07/26 11:36:19;;;;;;;0.50;0.50;;;23.60;99.90;;;;;;4763228;30;20055;-87
2023/07/26 11:38:45;;;;;;;0.63;0.63;;;22.70;99.90;;;;;;4778192;29;20147;-86
2023/07/26 11:41:18;;;;;;;0.70;0.70;;;22.10;99.90;;;;;;4780388;30;20129;-86
2023/07/26 11:43:43;;;;;;;0.80;0.80;;;21.20;99.90;;;;;;4778855;30;20097;-87
2023/07/26 11:46:31;;;;;;;0.80;0.80;;;20.50;99.90;;;;;;4778066;29;20082;-92
2023/07/26 11:48:56;;;;;;;0.70;0.70;;;19.90;99.90;;;;;;4781455;30;20043;-88
2023/07/26 11:51:22;;;;;;;0.60;0.60;;;18.90;99.90;;;;;;4780231;30;20579;-83
2023/07/26 11:53:48;;;;;;;0.60;0.60;;;18.30;99.90;;;;;;4781090;29;20046;-87
2023/07/26 11:56:16;;;;;;;0.60;0.60;;;17.40;99.90;;;;;;4781014;30;20052;-88
2023/07/26 11:58:43;;;;;;;0.70;0.70;;;17.10;99.90;;;;;;4782043;30;20058;-85
2023/07/26 12:01:09;;;;;;;0.70;0.70;;;16.90;99.90;;;;;;4780795;29;20116;-92
2023/07/26 12:03:36;;;;;;;0.80;0.80;;;16.40;99.90;;;;;;4767942;30;20151;-90
2023/07/26 12:10:23;;;;;;;;;;;;;;;;;;;;;
2023/07/26 12:13:26;;;;;;;0.88;0.88;;;17.90;99.90;;;;;;4736008;30;20060;-91
2023/07/26 12:16:28;;;;;;;0.82;0.82;;;18.50;99.90;;;;;;4724173;30;20041;-93
2023/07/26 12:19:00;;;;;;;0.80;0.80;;;18.50;99.90;;;;;;4741520;30;20055;-94
2023/07/26 12:21:36;;;;;;;0.80;0.80;;;18.90;99.90;;;;;;4758598;30;20056;-88
2023/07/26 12:24:06;;;;;;;0.70;0.70;;;19.50;99.90;;;;;;4749281;30;20068;-86
2023/07/26 12:26:34;;;;;;;0.70;0.70;;;19.90;99.90;;;;;;4773591;30;20059;-89
2023/07/26 12:29:03;;;;;;;0.60;0.60;;;20.10;99.90;;;;;;4764104;30;20379;-87
2023/07/26 12:31:34;;;;;;;0.50;0.50;;;20.10;99.90;;;;;;4778759;30;20161;-85
2023/07/26 12:34:17;;;;;;;0.50;0.50;;;19.90;99.90;;;;;;4778376;30;20055;-90
2023/07/26 12:36:45;;;;;;;0.50;0.50;;;20.30;99.90;;;;;;4763542;30;20094;-88
2023/07/26 12:39:12;;;;;;;0.50;0.50;;;20.10;99.90;;;;;;4763079;30;20055;-87
2023/07/26 12:41:39;;;;;;;0.50;0.50;;;20.30;99.90;;;;;;4777328;30;20059;-86
2023/07/26 12:44:06;;;;;;;0.50;0.50;;;20.40;99.90;;;;;;4777780;29;20058;-89
2023/07/26 12:46:35;;;;;;;0.50;0.50;;;20.20;99.90;;;;;;4776615;29;20083;-89
2023/07/26 12:49:01;;;;;;;0.50;0.50;;;20.00;99.90;;;;;;4776586;30;20108;-90
2023/07/26 12:51:27;;;;;;;0.60;0.60;;;20.00;99.90;;;;;;4761415;30;20051;-86
2023/07/26 12:53:54;;;;;;;0.57;0.57;;;20.70;99.90;;;;;;4762670;30;20137;-86
2023/07/26 12:56:21;;;;;;;0.57;0.57;;;20.90;99.90;;;;;;4776168;30;20050;-85
2023/07/26 12:58:47;;;;;;;0.50;0.50;;;21.30;99.90;;;;;;4778171;29;20063;-89
2023/07/26 13:01:13;;;;;;;0.50;0.50;;;21.20;99.90;;;;;;4779805;30;20112;-85
2023/07/26 13:03:39;;;;;;;0.60;0.60;;;21.40;99.90;;;;;;4777603;29;20055;-86
2023/07/26 13:06:05;;;;;;;0.50;0.50;;;21.30;99.90;;;;;;4765561;30;20047;-86
2023/07/26 13:08:32;;;;;;;0.60;0.60;;;21.30;99.90;;;;;;4778779;29;20059;-86
2023/07/26 13:10:58;;;;;;;0.50;0.50;;;21.70;99.90;;;;;;4765695;30;20051;-88
2023/07/26 13:13:25;;;;;;;0.55;0.55;;;21.40;99.90;;;;;;4775194;29;20086;-87
2023/07/26 13:15:50;;;;;;;0.60;0.60;;;21.00;99.90;;;;;;4776626;29;20055;-85
2023/07/26 13:18:16;;;;;;;0.60;0.60;;;20.80;99.90;;;;;;4777146;29;20088;-86
2023/07/26 13:20:42;;;;;;;0.60;0.60;;;20.70;99.90;;;;;;4764533;29;20116;-88
2023/07/26 13:23:09;;;;;;;0.60;0.60;;;21.40;99.90;;;;;;4764050;30;20051;-87
2023/07/26 13:25:34;;;;;;;0.60;0.60;;;22.00;99.90;;;;;;4778173;29;20057;-86
2023/07/26 13:28:00;;;;;;;0.68;0.68;;;22.00;99.90;;;;;;4779893;30;20055;-83
2023/07/26 13:30:26;;;;;;;0.70;0.70;;;22.40;99.90;;;;;;4778171;29;20181;-86
2023/07/26 13:32:52;;;;;;;0.90;0.90;;;22.50;99.90;;;;;;4779040;29;20143;-85
2023/07/26 13:35:18;;;;;;;1.05;1.05;;;22.50;99.90;;;;;;4778331;29;20063;-86
2023/07/26 13:37:44;;;;;;;0.90;0.90;;;21.40;99.90;;;;;;4777399;30;20051;-87
2023/07/26 13:40:10;;;;;;;0.80;0.80;;;21.10;99.90;;;;;;4776868;30;20050;-85
2023/07/26 13:42:36;;;;;;;0.80;0.80;;;21.50;99.90;;;;;;4778891;30;20050;-86
2023/07/26 13:45:02;;;;;;;0.70;0.70;;;20.90;99.90;;;;;;4762471;29;20051;-86
2023/07/26 13:47:30;;;;;;;0.60;0.60;;;21.20;99.90;;;;;;4777401;29;20119;-85
2023/07/26 13:49:56;;;;;;;0.60;0.60;;;21.40;99.90;;;;;;4762088;30;20059;-86
2023/07/26 13:52:22;;;;;;;0.60;0.60;;;21.10;99.90;;;;;;4772374;30;20100;-86
2023/07/26 13:54:48;;;;;;;0.60;0.60;;;21.10;99.90;;;;;;4778628;30;20109;-86
2023/07/26 13:57:16;;;;;;;0.60;0.60;;;20.70;99.90;;;;;;4775555;29;20043;-89
2023/07/26 13:59:42;;;;;;;0.60;0.60;;;20.80;99.90;;;;;;4773169;29;20063;-87
2023/07/26 14:02:08;;;;;;;0.50;0.50;;;20.60;99.90;;;;;;4777142;30;20410;-85
2023/07/26 14:04:34;;;;;;;0.50;0.50;;;21.00;99.90;;;;;;4776293;30;20418;-83
2023/07/26 14:07:00;;;;;;;0.57;0.57;;;20.50;99.90;;;;;;4773626;30;20043;-85
2023/07/26 14:09:26;;;;;;;0.50;0.50;;;20.10;99.90;;;;;;4775031;29;20524;-87
2023/07/26 14:11:51;;;;;;;0.47;0.47;;;20.00;99.90;;;;;;4780214;30;20074;-86
2023/07/26 14:14:17;;;;;;;0.50;0.50;;;20.00;99.90;;;;;;4778909;30;20051;-87
2023/07/26 14:16:43;;;;;;;0.50;0.50;;;20.40;99.90;;;;;;4779722;29;20466;-89
2023/07/26 14:19:10;;;;;;;0.50;0.50;;;21.10;99.90;;;;;;4792724;29;20055;-87
2023/07/26 14:21:36;;;;;;;0.40;0.40;;;21.60;99.90;;;;;;4777460;29;20047;-86
2023/07/26 14:24:02;;;;;;;0.50;0.50;;;21.90;99.90;;;;;;4776808;29;20055;-86
2023/07/26 14:26:28;;;;;;;0.60;0.60;;;22.10;99.90;;;;;;4778296;30;20052;-86
2023/07/26 14:28:54;;;;;;;0.50;0.50;;;22.20;99.90;;;;;;4779108;29;20145;-90
2023/07/26 14:31:19;;;;;;;0.60;0.60;;;21.90;99.90;;;;;;4763037;30;20725;-87
2023/07/26 14:33:45;;;;;;;0.60;0.60;;;21.60;99.90;;;;;;4777545;30;20051;-85
2023/07/26 14:36:11;;;;;;;0.60;0.60;;;22.00;99.90;;;;;;4775866;29;20054;-89
2023/07/26 14:38:37;;;;;;;0.60;0.60;;;22.10;99.90;;;;;;4763505;30;20058;-87
2023/07/26 14:41:03;;;;;;;0.70;0.70;;;21.60;99.90;;;;;;4794474;29;20055;-88
2023/07/26 14:43:29;;;;;;;0.70;0.70;;;21.30;99.90;;;;;;4777774;29;20095;-89
2023/07/26 14:45:54;;;;;;;0.60;0.60;;;21.30;99.90;;;;;;4777959;29;20048;-86
2023/07/26 14:48:20;;;;;;;0.70;0.70;;;21.10;99.90;;;;;;4779456;29;20059;-86
2023/07/26 14:50:46;;;;;;;0.60;0.60;;;21.00;99.90;;;;;;4779100;29;20055;-89
2023/07/26 14:53:12;;;;;;;0.70;0.70;;;21.00;99.90;;;;;;4777256;30;20185;-87
2023/07/26 14:55:37;;;;;;;0.60;0.60;;;20.90;99.90;;;;;;4776263;29;20100;-87
2023/07/26 14:58:04;;;;;;;0.60;0.60;;;21.70;99.90;;;;;;4776276;30;20055;-86
2023/07/26 15:00:30;;;;;;;0.60;0.60;;;21.70;99.90;;;;;;4763474;29;20051;-85
2023/07/26 15:02:55;;;;;;;0.85;0.85;;;21.80;99.90;;;;;;4773091;29;20051;-86
2023/07/26 15:05:21;;;;;;;0.70;0.70;;;21.70;99.90;;;;;;4773735;29;20080;-86
2023/07/26 15:07:50;;;;;;;0.77;0.77;;;21.70;99.90;;;;;;4779178;29;20506;-88
2023/07/26 15:10:16;;;;;;;0.73;0.73;;;21.30;99.90;;;;;;4762131;30;20536;-88
2023/07/26 15:12:42;;;;;;;0.70;0.70;;;21.60;99.90;;;;;;4776263;29;20051;-90
2023/07/26 15:15:12;;;;;;;0.75;0.75;;;21.60;99.90;;;;;;4773085;29;20116;-84
2023/07/26 15:18:01;;;;;;;0.75;0.75;;;21.60;99.90;;;;;;4776746;29;20066;-88
2023/07/26 15:20:27;;;;;;;0.80;0.80;;;22.00;99.90;;;;;;4769701;29;20124;-88
2023/07/26 15:22:53;;;;;;;0.80;0.80;;;22.10;99.90;;;;;;4772287;29;20083;-89
2023/07/26 15:25:19;;;;;;;0.77;0.77;;;22.00;99.90;;;;;;4758094;30;20043;-86
2023/07/26 15:27:45;;;;;;;0.80;0.80;;;22.30;99.90;;;;;;4772526;29;20096;-87
2023/07/26 15:30:11;;;;;;;0.80;0.80;;;22.50;99.90;;;;;;4769056;30;20055;-83
2023/07/26 15:32:37;;;;;;;0.70;0.70;;;22.40;99.90;;;;;;4767236;29;20062;-84
2023/07/26 15:35:03;;;;;;;0.80;0.80;;;22.20;99.90;;;;;;4770415;29;20051;-87
2023/07/26 15:37:29;;;;;;;0.80;0.80;;;22.10;99.90;;;;;;4757495;30;20105;-85
2023/07/26 15:39:58;;;;;;;0.70;0.70;;;21.90;99.90;;;;;;4773965;29;20051;-89
2023/07/26 15:42:24;;;;;;;0.80;0.80;;;21.80;99.90;;;;;;4760467;30;20047;-84
2023/07/26 15:44:50;;;;;;;0.70;0.70;;;21.60;99.90;;;;;;4773038;29;20097;-85
2023/07/26 15:47:16;;;;;;;0.73;0.73;;;21.40;99.90;;;;;;4771794;29;20047;-87
2023/07/26 15:49:42;;;;;;;0.70;0.70;;;21.60;99.90;;;;;;4771389;29;20052;-87
2023/07/26 15:52:07;;;;;;;0.70;0.70;;;21.80;99.90;;;;;;4772187;29;20054;-84
2023/07/26 15:54:36;;;;;;;0.70;0.70;;;21.90;99.90;;;;;;4769437;29;20051;-86
2023/07/26 15:57:13;;;;;;;0.70;0.70;;;22.00;99.90;;;;;;4756823;30;20089;-86
2023/07/26 15:59:39;;;;;;;0.70;0.70;;;21.90;99.90;;;;;;4770710;29;20058;-86
2023/07/26 16:02:05;;;;;;;0.70;0.70;;;21.90;99.90;;;;;;4765679;29;20078;-88
2023/07/26 16:04:31;;;;;;;0.70;0.70;;;21.90;99.90;;;;;;4755617;30;20062;-86
2023/07/26 16:06:57;;;;;;;0.80;0.80;;;21.90;99.90;;;;;;4756842;30;20059;-84
2023/07/26 16:09:22;;;;;;;0.70;0.70;;;21.80;99.90;;;;;;4772060;29;20051;-87
2023/07/26 16:11:51;;;;;;;0.70;0.70;;;21.70;99.90;;;;;;4772417;30;20047;-86
2023/07/26 16:14:17;;;;;;;0.70;0.70;;;21.60;99.90;;;;;;4771623;29;20078;-90
2023/07/26 16:16:42;;;;;;;0.70;0.70;;;21.30;99.90;;;;;;4771897;30;20876;-89
2023/07/26 16:19:08;;;;;;;0.77;0.77;;;20.90;99.90;;;;;;4758886;30;20050;-86
2023/07/26 16:21:34;;;;;;;0.70;0.70;;;20.70;99.90;;;;;;4758266;30;20059;-87
2023/07/26 16:24:00;;;;;;;0.63;0.63;;;20.60;99.90;;;;;;4759934;29;20053;-88
2023/07/26 16:26:26;;;;;;;0.70;0.70;;;20.40;99.90;;;;;;4774080;29;20055;-87
2023/07/26 16:28:52;;;;;;;0.60;0.60;;;20.40;99.90;;;;;;4761400;30;20062;-87
2023/07/26 16:31:18;;;;;;;0.50;0.50;;;20.90;99.90;;;;;;4774772;29;20047;-89
2023/07/26 16:33:44;;;;;;;0.60;0.60;;;20.80;99.90;;;;;;4762665;30;20097;-85
2023/07/26 16:36:09;;;;;;;0.60;0.60;;;20.60;99.90;;;;;;4757066;30;20533;-87
2023/07/26 16:39:02;;;;;;;0.50;0.50;;;20.30;99.90;;;;;;4773808;30;20057;-85
2023/07/26 16:41:27;;;;;;;0.50;0.50;;;20.10;99.90;;;;;;4773667;29;20061;-87
2023/07/26 16:43:53;;;;;;;0.50;0.50;;;20.30;99.90;;;;;;4758540;30;20047;-84
2023/07/26 16:46:19;;;;;;;0.40;0.40;;;20.60;99.90;;;;;;4774771;29;20043;-90
2023/07/26 16:48:44;;;;;;;0.50;0.50;;;20.60;99.90;;;;;;4758536;30;20059;-87
2023/07/26 16:51:10;;;;;;;0.50;0.50;;;20.70;99.90;;;;;;4769632;29;20453;-87
2023/07/26 16:53:39;;;;;;;0.50;0.50;;;20.40;99.90;;;;;;4773263;29;20043;-94
2023/07/26 16:56:05;;;;;;;0.50;0.50;;;20.20;99.90;;;;;;4758710;30;20995;-85
2023/07/26 16:58:33;;;;;;;0.60;0.60;;;20.00;99.90;;;;;;4762614;30;20081;-87
2023/07/26 17:00:59;;;;;;;0.60;0.60;;;19.90;99.90;;;;;;4771919;29;20126;-85
2023/07/26 17:03:25;;;;;;;0.60;0.60;;;19.80;99.90;;;;;;4773288;29;20047;-87
2023/07/26 17:05:51;;;;;;;0.60;0.60;;;19.70;99.90;;;;;;4776806;30;20062;-88
2023/07/26 17:08:17;;;;;;;0.60;0.60;;;19.60;99.90;;;;;;4760347;30;20051;-86
2023/07/26 17:10:42;;;;;;;0.70;0.70;;;19.50;99.90;;;;;;4762346;30;20054;-86
2023/07/26 17:13:10;;;;;;;0.70;0.70;;;19.50;99.90;;;;;;4777602;29;20185;-86
2023/07/26 17:15:36;;;;;;;0.70;0.70;;;19.50;99.90;;;;;;4774564;29;20130;-86
2023/07/26 17:18:02;;;;;;;0.70;0.70;;;19.50;99.90;;;;;;4775478;30;20551;-86
2023/07/26 17:20:27;;;;;;;0.70;0.70;;;19.60;99.90;;;;;;4778040;29;20047;-87
2023/07/26 17:22:53;;;;;;;0.70;0.70;;;19.80;99.90;;;;;;4777127;30;20067;-91
2023/07/26 17:29:00;;;;;;;0.70;0.70;;;20.00;99.90;;;;;;4776059;30;20039;-86
2023/07/26 17:31:29;;;;;;;0.70;0.70;;;20.00;99.90;;;;;;4775449;29;20051;-86
2023/07/26 17:33:55;;;;;;;0.70;0.70;;;19.80;99.90;;;;;;4792302;29;20047;-87
2023/07/26 17:36:21;;;;;;;0.80;0.80;;;19.60;99.90;;;;;;4776624;29;20089;-88
2023/07/26 17:38:47;;;;;;;0.73;0.73;;;19.40;99.90;;;;;;4759000;30;20138;-86
2023/07/26 17:41:14;;;;;;;0.77;0.77;;;19.40;99.90;;;;;;4763469;30;20584;-85
2023/07/26 17:43:55;;;;;;;0.73;0.73;;;19.40;99.90;;;;;;4757834;30;20056;-94
2023/07/26 17:46:21;;;;;;;0.70;0.70;;;19.60;99.90;;;;;;4757586;30;20064;-88
2023/07/26 17:48:47;;;;;;;0.70;0.70;;;19.40;99.90;;;;;;4764059;30;20062;-88
2023/07/26 17:51:13;;;;;;;0.70;0.70;;;19.40;99.90;;;;;;4760607;30;20675;-88
2023/07/26 17:53:40;;;;;;;0.70;0.70;;;19.40;99.90;;;;;;4762849;30;20055;-87
2023/07/26 17:56:06;;;;;;;0.70;0.70;;;19.30;99.90;;;;;;4760774;29;20055;-85
2023/07/26 17:58:32;;;;;;;0.80;0.80;;;19.30;99.90;;;;;;4760968;30;20062;-87